createdAt,value
2019-03-19T00:00:53.340Z,5.69
2019-03-19T00:01:53.554Z,5.75
2019-03-19T00:02:54.311Z,5.75
2019-03-19T00:03:53.389Z,5.75
2019-03-19T00:04:53.380Z,5.75
2019-03-19T00:05:53.410Z,5.69
2019-03-19T00:06:53.368Z,5.69
2019-03-19T00:07:53.373Z,5.69
2019-03-19T00:08:53.362Z,5.69
2019-03-19T00:09:53.361Z,5.69
2019-03-19T00:10:53.377Z,5.62
2019-03-19T00:11:53.376Z,5.62
2019-03-19T00:12:53.383Z,5.62
2019-03-19T00:13:53.372Z,5.62
2019-03-19T00:14:53.344Z,5.62
2019-03-19T00:15:53.361Z,5.62
2019-03-19T00:16:54.226Z,5.56
2019-03-19T00:17:53.437Z,5.56
2019-03-19T00:18:53.350Z,5.56
2019-03-19T00:19:53.357Z,5.56
2019-03-19T00:20:53.378Z,5.56
2019-03-19T00:21:53.321Z,5.56
2019-03-19T00:22:53.368Z,5.56
2019-03-19T00:23:53.612Z,5.56
2019-03-19T00:24:53.708Z,5.56
2019-03-19T00:25:53.475Z,5.56
2019-03-19T00:26:53.365Z,5.56
2019-03-19T00:27:53.352Z,5.56
2019-03-19T00:28:53.322Z,5.56
2019-03-19T00:29:53.495Z,5.5
2019-03-19T00:30:53.321Z,5.56
2019-03-19T00:31:53.352Z,5.5
2019-03-19T00:32:53.362Z,5.5
2019-03-19T00:33:53.518Z,5.5
2019-03-19T00:34:53.295Z,5.5
2019-03-19T00:35:53.303Z,5.5
2019-03-19T00:36:53.345Z,5.5
2019-03-19T00:37:53.326Z,5.5
2019-03-19T00:38:53.295Z,5.44
2019-03-19T00:39:53.311Z,5.44
2019-03-19T00:40:53.314Z,5.44
2019-03-19T00:41:53.507Z,5.37
2019-03-19T00:42:53.352Z,5.44
2019-03-19T00:43:53.302Z,5.44
2019-03-19T00:44:53.330Z,5.37
2019-03-19T00:45:53.536Z,5.37
2019-03-19T00:46:53.550Z,5.31
2019-03-19T00:47:53.331Z,5.37
2019-03-19T00:48:53.288Z,5.37
2019-03-19T00:49:53.295Z,5.37
2019-03-19T00:50:53.305Z,5.37
2019-03-19T00:51:54.193Z,5.37
2019-03-19T00:52:53.307Z,5.44
2019-03-19T00:53:53.266Z,5.44
2019-03-19T00:54:53.298Z,5.37
2019-03-19T00:55:53.288Z,5.37
2019-03-19T00:56:53.293Z,5.44
2019-03-19T00:57:53.277Z,5.44
2019-03-19T00:58:53.273Z,5.37
2019-03-19T00:59:53.286Z,5.44
2019-03-19T01:00:53.265Z,5.37
2019-03-19T01:01:53.279Z,5.37
2019-03-19T01:02:53.279Z,5.44
2019-03-19T01:03:53.336Z,5.37
2019-03-19T01:04:53.325Z,5.37
2019-03-19T01:05:53.279Z,5.44
2019-03-19T01:06:53.301Z,5.37
2019-03-19T01:07:53.601Z,5.37
2019-03-19T01:08:53.252Z,5.44
2019-03-19T01:09:53.269Z,5.44
2019-03-19T01:10:53.284Z,5.44
2019-03-19T01:11:53.259Z,5.37
2019-03-19T01:12:53.261Z,5.44
2019-03-19T01:13:53.240Z,5.37
2019-03-19T01:14:53.271Z,5.37
2019-03-19T01:15:53.269Z,5.44
2019-03-19T01:16:53.254Z,5.37
2019-03-19T01:17:53.274Z,5.44
2019-03-19T01:18:53.272Z,5.37
2019-03-19T01:19:53.266Z,5.44
2019-03-19T01:20:53.240Z,5.44
2019-03-19T01:21:53.254Z,5.37
2019-03-19T01:22:53.246Z,5.44
2019-03-19T01:23:53.314Z,5.37
2019-03-19T01:24:53.325Z,5.44
2019-03-19T01:25:56.383Z,5.37
2019-03-19T01:26:53.253Z,5.37
2019-03-19T01:27:53.281Z,5.37
2019-03-19T01:28:53.235Z,5.31
2019-03-19T01:29:53.269Z,5.31
2019-03-19T01:30:53.285Z,5.31
2019-03-19T01:31:53.225Z,5.31
2019-03-19T01:32:53.294Z,5.31
2019-03-19T01:33:53.367Z,5.31
2019-03-19T01:34:53.258Z,5.31
2019-03-19T01:35:53.213Z,5.31
2019-03-19T01:36:53.206Z,5.31
2019-03-19T01:37:53.273Z,5.31
2019-03-19T01:38:53.237Z,5.31
2019-03-19T01:39:53.217Z,5.25
2019-03-19T01:40:53.226Z,5.25
2019-03-19T01:41:53.209Z,5.25
2019-03-19T01:42:53.214Z,5.25
2019-03-19T01:43:53.215Z,5.25
2019-03-19T01:44:53.221Z,5.19
2019-03-19T01:45:53.208Z,5.19
2019-03-19T01:46:53.234Z,5.19
2019-03-19T01:47:53.187Z,5.19
2019-03-19T01:48:53.234Z,5.12
2019-03-19T01:49:53.207Z,5.12
2019-03-19T01:50:53.470Z,5.12
2019-03-19T01:51:53.195Z,5.06
2019-03-19T01:52:53.182Z,5.12
2019-03-19T01:53:53.198Z,5.06
2019-03-19T01:54:53.195Z,5.06
2019-03-19T01:55:53.205Z,5.06
2019-03-19T01:56:53.190Z,5
2019-03-19T01:57:53.201Z,5
2019-03-19T01:58:53.202Z,5
2019-03-19T01:59:53.207Z,5
2019-03-19T02:00:53.243Z,4.94
2019-03-19T02:01:53.192Z,4.94
2019-03-19T02:02:53.197Z,4.94
2019-03-19T02:03:53.190Z,4.87
2019-03-19T02:04:53.219Z,4.87
2019-03-19T02:05:53.285Z,4.81
2019-03-19T02:06:53.175Z,4.87
2019-03-19T02:07:53.233Z,4.81
2019-03-19T02:08:53.234Z,4.81
2019-03-19T02:09:53.160Z,4.75
2019-03-19T02:10:53.183Z,4.75
2019-03-19T02:11:53.185Z,4.75
2019-03-19T02:12:53.519Z,4.69
2019-03-19T02:13:53.181Z,4.62
2019-03-19T02:14:53.169Z,4.69
2019-03-19T02:15:53.181Z,4.62
2019-03-19T02:16:53.155Z,4.62
2019-03-19T02:17:53.179Z,4.56
2019-03-19T02:18:53.163Z,4.56
2019-03-19T02:19:53.171Z,4.56
2019-03-19T02:20:53.152Z,4.5
2019-03-19T02:21:53.167Z,4.5
2019-03-19T02:22:53.351Z,4.44
2019-03-19T02:23:53.175Z,4.44
2019-03-19T02:24:53.181Z,4.44
2019-03-19T02:25:53.161Z,4.44
2019-03-19T02:26:53.224Z,4.44
2019-03-19T02:27:53.292Z,4.44
2019-03-19T02:28:53.168Z,4.44
2019-03-19T02:29:53.149Z,4.37
2019-03-19T02:30:53.313Z,4.37
2019-03-19T02:31:53.183Z,4.31
2019-03-19T02:32:53.171Z,4.31
2019-03-19T02:33:53.279Z,4.31
2019-03-19T02:34:53.326Z,4.25
2019-03-19T02:35:53.221Z,4.25
2019-03-19T02:36:53.159Z,4.25
2019-03-19T02:37:53.338Z,4.25
2019-03-19T02:38:53.157Z,4.25
2019-03-19T02:39:53.135Z,4.25
2019-03-19T02:40:53.218Z,4.25
2019-03-19T02:41:53.180Z,4.25
2019-03-19T02:42:53.189Z,4.25
2019-03-19T02:43:53.112Z,4.25
2019-03-19T02:44:53.135Z,4.25
2019-03-19T02:45:53.133Z,4.25
2019-03-19T02:46:53.118Z,4.25
2019-03-19T02:47:53.549Z,4.25
2019-03-19T02:48:53.197Z,4.25
2019-03-19T02:49:53.145Z,4.19
2019-03-19T02:50:53.140Z,4.12
2019-03-19T02:51:53.134Z,4.12
2019-03-19T02:52:53.163Z,4.19
2019-03-19T02:53:53.121Z,4.06
2019-03-19T02:54:53.100Z,4.06
2019-03-19T02:55:54.973Z,4.12
2019-03-19T02:56:53.115Z,4.06
2019-03-19T02:57:53.142Z,4.06
2019-03-19T02:58:53.140Z,4.06
2019-03-19T02:59:53.087Z,4
2019-03-19T03:00:53.115Z,4.06
2019-03-19T03:01:53.169Z,4
2019-03-19T03:02:53.157Z,4.06
2019-03-19T03:03:53.106Z,4.06
2019-03-19T03:04:53.156Z,4.06
2019-03-19T03:05:53.135Z,4
2019-03-19T03:06:53.093Z,4.06
2019-03-19T03:07:53.155Z,4.06
2019-03-19T03:08:53.123Z,4.06
2019-03-19T03:09:53.085Z,4.06
2019-03-19T03:10:53.151Z,4.06
2019-03-19T03:11:53.101Z,4
2019-03-19T03:12:53.119Z,4.06
2019-03-19T03:13:53.083Z,4.06
2019-03-19T03:14:53.159Z,4
2019-03-19T03:15:53.037Z,4
2019-03-19T03:16:53.089Z,4
2019-03-19T03:17:53.079Z,4
2019-03-19T03:18:53.146Z,3.94
2019-03-19T03:19:53.103Z,3.87
2019-03-19T03:20:53.097Z,3.87
2019-03-19T03:21:53.094Z,3.94
2019-03-19T03:22:53.087Z,3.87
2019-03-19T03:23:53.072Z,3.94
2019-03-19T03:24:53.146Z,3.94
2019-03-19T03:25:53.097Z,3.94
2019-03-19T03:26:53.117Z,3.87
2019-03-19T03:27:53.139Z,3.87
2019-03-19T03:28:53.094Z,3.87
2019-03-19T03:29:53.064Z,3.87
2019-03-19T03:30:53.160Z,3.87
2019-03-19T03:31:53.105Z,3.87
2019-03-19T03:32:53.696Z,3.94
2019-03-19T03:33:53.066Z,3.94
2019-03-19T03:34:53.109Z,3.87
2019-03-19T03:35:53.102Z,3.87
2019-03-19T03:36:53.081Z,3.87
2019-03-19T03:37:53.101Z,3.87
2019-03-19T03:38:53.063Z,3.87
2019-03-19T03:39:53.036Z,3.87
2019-03-19T03:40:53.050Z,3.87
2019-03-19T03:41:53.241Z,3.94
2019-03-19T03:42:53.036Z,3.87
2019-03-19T03:43:53.005Z,3.87
2019-03-19T03:44:53.063Z,3.87
2019-03-19T03:45:53.158Z,3.87
2019-03-19T03:46:53.017Z,3.87
2019-03-19T03:47:53.062Z,3.87
2019-03-19T03:48:53.115Z,3.87
2019-03-19T03:49:53.117Z,3.87
2019-03-19T03:50:53.052Z,3.94
2019-03-19T03:51:53.015Z,3.94
2019-03-19T03:52:53.097Z,3.87
2019-03-19T03:53:53.049Z,3.87
2019-03-19T03:54:53.053Z,3.87
2019-03-19T03:55:53.111Z,3.87
2019-03-19T03:57:03.322Z,3.87
2019-03-19T03:57:53.054Z,3.87
2019-03-19T03:59:01.740Z,3.87
2019-03-19T03:59:53.064Z,3.87
2019-03-19T04:00:53.417Z,3.87
2019-03-19T04:01:53.059Z,3.87
2019-03-19T04:02:53.089Z,3.87
2019-03-19T04:03:52.988Z,3.87
2019-03-19T04:04:53.038Z,3.87
2019-03-19T04:05:53.026Z,3.94
2019-03-19T04:06:53.011Z,3.87
2019-03-19T04:07:52.981Z,3.87
2019-03-19T04:08:53.013Z,3.94
2019-03-19T04:09:53.177Z,3.87
2019-03-19T04:10:53.063Z,3.87
2019-03-19T04:11:53.026Z,3.87
2019-03-19T04:12:53.059Z,3.87
2019-03-19T04:13:53.009Z,3.87
2019-03-19T04:14:53.049Z,3.87
2019-03-19T04:15:53.042Z,3.87
2019-03-19T04:16:53.031Z,3.87
2019-03-19T04:17:52.996Z,3.87
2019-03-19T04:18:52.981Z,3.87
2019-03-19T04:19:53.003Z,3.87
2019-03-19T04:20:52.972Z,3.87
2019-03-19T04:21:53.008Z,3.87
2019-03-19T04:22:53.267Z,3.87
2019-03-19T04:23:53.015Z,3.87
2019-03-19T04:24:53.012Z,3.94
2019-03-19T04:25:53.016Z,3.87
2019-03-19T04:26:52.997Z,3.87
2019-03-19T04:27:53.001Z,3.94
2019-03-19T04:28:52.984Z,3.94
2019-03-19T04:29:52.985Z,3.87
2019-03-19T04:30:52.988Z,3.87
2019-03-19T04:31:53.045Z,3.87
2019-03-19T04:32:52.984Z,3.87
2019-03-19T04:33:53.037Z,3.87
2019-03-19T04:34:52.997Z,3.87
2019-03-19T04:35:52.959Z,3.94
2019-03-19T04:36:52.960Z,3.87
2019-03-19T04:37:52.960Z,3.87
2019-03-19T04:38:53.100Z,3.87
2019-03-19T04:39:52.950Z,3.87
2019-03-19T04:40:52.988Z,3.87
2019-03-19T04:41:52.974Z,3.87
2019-03-19T04:42:53.110Z,3.87
2019-03-19T04:43:53.267Z,3.87
2019-03-19T04:44:53.166Z,3.94
2019-03-19T04:45:52.959Z,3.87
2019-03-19T04:46:53.139Z,3.94
2019-03-19T04:47:52.968Z,3.94
2019-03-19T04:48:52.956Z,3.87
2019-03-19T04:49:52.966Z,3.87
2019-03-19T04:50:53.277Z,3.87
2019-03-19T04:51:52.950Z,3.87
2019-03-19T04:52:52.910Z,3.87
2019-03-19T04:53:52.958Z,3.94
2019-03-19T04:54:52.924Z,3.94
2019-03-19T04:55:52.922Z,3.94
2019-03-19T04:56:52.981Z,3.94
2019-03-19T04:57:52.919Z,3.94
2019-03-19T04:58:52.933Z,3.94
2019-03-19T04:59:52.966Z,3.94
2019-03-19T05:00:52.922Z,3.94
2019-03-19T05:01:52.901Z,3.94
2019-03-19T05:02:52.885Z,3.81
2019-03-19T05:03:52.904Z,3.75
2019-03-19T05:04:52.919Z,3.75
2019-03-19T05:05:53.216Z,3.62
2019-03-19T05:06:52.970Z,3.62
2019-03-19T05:07:52.938Z,3.62
2019-03-19T05:08:52.932Z,3.62
2019-03-19T05:09:52.932Z,3.56
2019-03-19T05:10:52.906Z,3.56
2019-03-19T05:11:52.906Z,3.56
2019-03-19T05:12:52.875Z,3.56
2019-03-19T05:13:52.882Z,3.56
2019-03-19T05:14:52.916Z,3.5
2019-03-19T05:15:52.894Z,3.5
2019-03-19T05:16:52.892Z,3.5
2019-03-19T05:17:52.880Z,3.5
2019-03-19T05:18:52.883Z,3.44
2019-03-19T05:19:52.882Z,3.37
2019-03-19T05:20:52.886Z,3.37
2019-03-19T05:21:52.879Z,3.37
2019-03-19T05:22:52.895Z,3.37
2019-03-19T05:23:52.874Z,3.31
2019-03-19T05:24:52.921Z,3.31
2019-03-19T05:25:53.764Z,3.31
2019-03-19T05:26:52.843Z,3.31
2019-03-19T05:27:53.037Z,3.37
2019-03-19T05:28:52.901Z,3.37
2019-03-19T05:29:52.893Z,3.31
2019-03-19T05:30:52.878Z,3.31
2019-03-19T05:31:52.864Z,3.25
2019-03-19T05:32:52.899Z,3.31
2019-03-19T05:33:52.899Z,3.25
2019-03-19T05:34:52.874Z,3.19
2019-03-19T05:35:52.860Z,3.19
2019-03-19T05:36:52.901Z,3.12
2019-03-19T05:37:52.860Z,3.19
2019-03-19T05:38:53.723Z,3.19
2019-03-19T05:39:52.886Z,3.19
2019-03-19T05:40:52.848Z,3.25
2019-03-19T05:41:52.942Z,3.25
2019-03-19T05:42:52.847Z,3.25
2019-03-19T05:43:52.871Z,3.25
2019-03-19T05:44:52.944Z,3.25
2019-03-19T05:45:52.826Z,3.25
2019-03-19T05:46:52.825Z,3.31
2019-03-19T05:48:52.846Z,3.31
2019-03-19T05:49:52.871Z,3.31
2019-03-19T05:50:52.851Z,3.31
2019-03-19T05:51:52.871Z,3.37
2019-03-19T05:52:52.845Z,3.37
2019-03-19T05:53:52.867Z,3.37
2019-03-19T05:54:52.846Z,3.37
2019-03-19T05:55:52.945Z,3.37
2019-03-19T05:56:52.822Z,3.37
2019-03-19T05:57:52.830Z,3.44
2019-03-19T05:58:52.818Z,3.44
2019-03-19T05:59:52.893Z,3.44
2019-03-19T06:00:52.942Z,3.44
2019-03-19T06:01:52.905Z,3.44
2019-03-19T06:02:53.110Z,3.44
2019-03-19T06:03:52.838Z,3.44
2019-03-19T06:04:52.827Z,3.44
2019-03-19T06:05:52.811Z,3.44
2019-03-19T06:06:52.826Z,3.5
2019-03-19T06:07:52.844Z,3.44
2019-03-19T06:08:52.805Z,3.44
2019-03-19T06:09:52.828Z,3.44
2019-03-19T06:10:54.472Z,3.5
2019-03-19T06:11:53.154Z,3.5
2019-03-19T06:12:52.897Z,3.56
2019-03-19T06:13:52.826Z,3.56
2019-03-19T06:14:52.802Z,3.56
2019-03-19T06:15:52.810Z,3.62
2019-03-19T06:16:52.797Z,3.56
2019-03-19T06:17:52.876Z,3.62
2019-03-19T06:18:52.855Z,3.62
2019-03-19T06:19:52.797Z,3.62
2019-03-19T06:20:52.835Z,3.62
2019-03-19T06:21:52.787Z,3.62
2019-03-19T06:22:52.822Z,3.69
2019-03-19T06:23:52.811Z,3.69
2019-03-19T06:24:52.783Z,3.62
2019-03-19T06:25:52.863Z,3.69
2019-03-19T06:26:52.877Z,3.69
2019-03-19T06:28:01.180Z,3.75
2019-03-19T06:28:52.838Z,3.75
2019-03-19T06:29:52.773Z,3.75
2019-03-19T06:30:52.790Z,3.75
2019-03-19T06:31:52.765Z,3.81
2019-03-19T06:32:53.177Z,3.81
2019-03-19T06:33:52.760Z,3.81
2019-03-19T06:34:52.764Z,3.81
2019-03-19T06:35:52.758Z,3.87
2019-03-19T06:36:52.797Z,3.87
2019-03-19T06:37:52.824Z,3.94
2019-03-19T06:38:52.756Z,3.94
2019-03-19T06:39:52.770Z,3.94
2019-03-19T06:40:52.786Z,3.94
2019-03-19T06:41:52.748Z,3.94
2019-03-19T06:42:52.779Z,3.87
2019-03-19T06:43:52.752Z,3.87
2019-03-19T06:44:52.753Z,3.87
2019-03-19T06:45:52.774Z,3.87
2019-03-19T06:46:52.757Z,3.94
2019-03-19T06:47:52.754Z,3.94
2019-03-19T06:48:52.753Z,4
2019-03-19T06:49:52.754Z,3.94
2019-03-19T06:50:52.781Z,3.87
2019-03-19T06:51:52.827Z,3.94
2019-03-19T06:52:52.775Z,3.94
2019-03-19T06:53:52.757Z,3.94
2019-03-19T06:54:53.407Z,3.94
2019-03-19T06:55:52.752Z,3.94
2019-03-19T06:56:52.747Z,3.94
2019-03-19T06:57:52.732Z,3.94
2019-03-19T06:58:52.730Z,3.94
2019-03-19T06:59:52.725Z,3.94
2019-03-19T07:00:52.737Z,4
2019-03-19T07:01:52.761Z,4
2019-03-19T07:02:52.785Z,4
2019-03-19T07:03:52.764Z,4
2019-03-19T07:04:52.746Z,4
2019-03-19T07:05:52.709Z,4
2019-03-19T07:06:52.722Z,4
2019-03-19T07:07:52.807Z,4
2019-03-19T07:08:52.758Z,4.06
2019-03-19T07:09:52.718Z,4
2019-03-19T07:10:52.726Z,4.06
2019-03-19T07:11:52.730Z,4.06
2019-03-19T07:12:52.720Z,4.06
2019-03-19T07:13:52.744Z,4.06
2019-03-19T07:14:52.758Z,4.06
2019-03-19T07:15:52.772Z,4.06
2019-03-19T07:16:52.708Z,4.06
2019-03-19T07:17:52.716Z,4.06
2019-03-19T07:18:52.705Z,4.12
2019-03-19T07:19:52.691Z,4.12
2019-03-19T07:20:52.691Z,4.12
2019-03-19T07:21:52.699Z,4.06
2019-03-19T07:22:52.693Z,4.12
2019-03-19T07:23:52.683Z,4.12
2019-03-19T07:24:52.696Z,4.12
2019-03-19T07:25:52.706Z,4.19
2019-03-19T07:26:52.694Z,4.12
2019-03-19T07:27:52.682Z,4.19
2019-03-19T07:28:52.721Z,4.19
2019-03-19T07:29:52.690Z,4.19
2019-03-19T07:30:52.688Z,4.25
2019-03-19T07:31:52.693Z,4.25
2019-03-19T07:32:52.687Z,4.31
2019-03-19T07:33:52.816Z,4.31
2019-03-19T07:34:52.659Z,4.37
2019-03-19T07:35:52.670Z,4.37
2019-03-19T07:36:52.664Z,4.37
2019-03-19T07:37:52.939Z,4.44
2019-03-19T07:38:52.492Z,4.44
2019-03-19T07:39:52.681Z,4.37
2019-03-19T07:40:52.701Z,4.37
2019-03-19T07:41:52.774Z,4.37
2019-03-19T07:42:52.679Z,4.44
2019-03-19T07:43:52.676Z,4.44
2019-03-19T07:44:52.689Z,4.44
2019-03-19T07:45:52.741Z,4.44
2019-03-19T07:46:52.687Z,4.37
2019-03-19T07:47:52.693Z,4.37
2019-03-19T07:48:52.881Z,4.44
2019-03-19T07:49:52.683Z,4.44
2019-03-19T07:50:52.661Z,4.5
2019-03-19T07:51:53.861Z,4.5
2019-03-19T07:52:52.676Z,4.56
2019-03-19T07:53:52.654Z,4.56
2019-03-19T07:54:52.651Z,4.62
2019-03-19T07:55:53.899Z,4.62
2019-03-19T07:56:52.664Z,4.69
2019-03-19T07:57:52.650Z,4.75
2019-03-19T07:58:52.677Z,4.75
2019-03-19T07:59:52.728Z,4.81
2019-03-19T08:00:52.672Z,4.81
2019-03-19T08:01:52.633Z,4.81
2019-03-19T08:02:52.729Z,4.87
2019-03-19T08:03:52.685Z,4.81
2019-03-19T08:04:52.628Z,4.81
2019-03-19T08:05:52.620Z,4.81
2019-03-19T08:06:52.668Z,4.94
2019-03-19T08:07:52.662Z,4.87
2019-03-19T08:08:52.761Z,4.87
2019-03-19T08:09:52.673Z,4.94
2019-03-19T08:10:52.620Z,4.87
2019-03-19T08:11:52.681Z,4.94
2019-03-19T08:12:52.646Z,4.94
2019-03-19T08:13:52.630Z,4.94
2019-03-19T08:14:52.737Z,5
2019-03-19T08:15:52.661Z,4.94
2019-03-19T08:16:53.622Z,5
2019-03-19T08:17:52.600Z,5
2019-03-19T08:18:52.623Z,5
2019-03-19T08:19:52.626Z,5
2019-03-19T08:20:52.828Z,5.06
2019-03-19T08:21:52.592Z,5.06
2019-03-19T08:22:52.595Z,5.06
2019-03-19T08:23:52.618Z,5.12
2019-03-19T08:24:52.592Z,5.12
2019-03-19T08:25:52.655Z,5.12
2019-03-19T08:26:52.603Z,5.19
2019-03-19T08:27:52.607Z,5.19
2019-03-19T08:28:55.904Z,5.25
2019-03-19T08:29:52.691Z,5.31
2019-03-19T08:30:52.637Z,5.31
2019-03-19T08:31:52.866Z,5.37
2019-03-19T08:32:52.602Z,5.44
2019-03-19T08:33:52.609Z,5.37
2019-03-19T08:34:52.601Z,5.37
2019-03-19T08:35:52.583Z,5.37
2019-03-19T08:36:52.622Z,5.37
2019-03-19T08:37:52.612Z,5.44
2019-03-19T08:38:52.574Z,5.5
2019-03-19T08:39:52.567Z,5.56
2019-03-19T08:40:52.675Z,5.62
2019-03-19T08:41:52.578Z,5.69
2019-03-19T08:42:53.602Z,5.69
2019-03-19T08:43:52.982Z,5.75
2019-03-19T08:44:52.579Z,5.75
2019-03-19T08:45:52.586Z,5.81
2019-03-19T08:46:52.549Z,5.81
2019-03-19T08:47:52.577Z,5.81
2019-03-19T08:48:52.559Z,5.94
2019-03-19T08:49:52.858Z,5.94
2019-03-19T08:50:52.541Z,5.94
2019-03-19T08:51:52.549Z,6
2019-03-19T08:52:56.061Z,6.06
2019-03-19T08:53:52.541Z,6.06
2019-03-19T08:54:52.579Z,6
2019-03-19T08:55:52.598Z,6
2019-03-19T08:56:52.548Z,6
2019-03-19T08:57:52.549Z,6
2019-03-19T08:58:52.640Z,6.06
2019-03-19T08:59:52.552Z,6.06
2019-03-19T09:00:52.524Z,6.06
2019-03-19T09:01:52.539Z,6.12
2019-03-19T09:02:52.536Z,6.12
2019-03-19T09:03:52.521Z,6.12
2019-03-19T09:04:52.566Z,6.12
2019-03-19T09:05:52.606Z,6.12
2019-03-19T09:06:52.555Z,6.19
2019-03-19T09:07:52.527Z,6.19
2019-03-19T09:08:52.517Z,6.25
2019-03-19T09:09:52.569Z,6.25
2019-03-19T09:10:52.649Z,6.25
2019-03-19T09:11:52.567Z,6.25
2019-03-19T09:12:52.549Z,6.25
2019-03-19T09:13:52.510Z,6.31
2019-03-19T09:14:52.510Z,6.25
2019-03-19T09:15:52.522Z,6.25
2019-03-19T09:16:52.526Z,6.25
2019-03-19T09:17:52.545Z,6.31
2019-03-19T09:18:52.518Z,6.31
2019-03-19T09:19:52.506Z,6.31
2019-03-19T09:20:54.350Z,6.25
2019-03-19T09:21:52.515Z,6.37
2019-03-19T09:22:52.551Z,6.37
2019-03-19T09:23:52.505Z,6.44
2019-03-19T09:24:52.559Z,6.44
2019-03-19T09:25:52.508Z,6.5
2019-03-19T09:26:52.491Z,6.5
2019-03-19T09:27:52.533Z,6.5
2019-03-19T09:28:52.504Z,6.5
2019-03-19T09:29:52.488Z,6.56
2019-03-19T09:30:52.497Z,6.56
2019-03-19T09:31:52.545Z,6.62
2019-03-19T09:32:52.630Z,6.62
2019-03-19T09:33:52.476Z,6.69
2019-03-19T09:34:52.491Z,6.75
2019-03-19T09:35:52.515Z,6.81
2019-03-19T09:36:58.070Z,6.87
2019-03-19T09:37:59.475Z,6.94
2019-03-19T09:38:52.481Z,7.06
2019-03-19T09:39:52.503Z,7.06
2019-03-19T09:40:52.518Z,7.06
2019-03-19T09:41:52.520Z,7.12
2019-03-19T09:42:52.528Z,7.12
2019-03-19T09:43:53.884Z,7.19
2019-03-19T09:44:58.987Z,7.19
2019-03-19T09:45:52.476Z,7.31
2019-03-19T09:46:52.499Z,7.31
2019-03-19T09:47:52.522Z,7.37
2019-03-19T09:48:52.538Z,7.37
2019-03-19T09:49:52.469Z,7.37
2019-03-19T09:50:52.474Z,7.37
2019-03-19T09:51:52.450Z,7.37
2019-03-19T09:52:52.453Z,7.31
2019-03-19T09:53:52.646Z,7.37
2019-03-19T09:54:52.776Z,7.37
2019-03-19T09:55:52.476Z,7.44
2019-03-19T09:56:52.457Z,7.44
2019-03-19T09:57:52.539Z,7.5
2019-03-19T09:58:52.512Z,7.5
2019-03-19T09:59:52.454Z,7.5
2019-03-19T10:00:52.454Z,7.56
2019-03-19T10:01:52.496Z,7.56
2019-03-19T10:02:52.424Z,7.56
2019-03-19T10:03:52.479Z,7.56
2019-03-19T10:04:52.503Z,7.62
2019-03-19T10:05:52.444Z,7.62
2019-03-19T10:06:52.456Z,7.69
2019-03-19T10:07:52.457Z,7.69
2019-03-19T10:08:52.476Z,7.75
2019-03-19T10:09:52.453Z,7.75
2019-03-19T10:10:52.853Z,7.81
2019-03-19T10:11:52.447Z,7.81
2019-03-19T10:12:52.445Z,7.87
2019-03-19T10:13:52.683Z,7.94
2019-03-19T10:14:52.434Z,8
2019-03-19T10:15:52.546Z,8
2019-03-19T10:16:52.467Z,8.06
2019-03-19T10:17:52.440Z,8
2019-03-19T10:18:52.518Z,7.87
2019-03-19T10:19:52.427Z,7.87
2019-03-19T10:20:52.422Z,7.87
2019-03-19T10:21:52.428Z,7.87
2019-03-19T10:22:52.489Z,7.94
2019-03-19T10:23:52.452Z,8
2019-03-19T10:24:52.416Z,8.06
2019-03-19T10:25:52.404Z,8.13
2019-03-19T10:26:52.398Z,8.19
2019-03-19T10:27:52.417Z,8.13
2019-03-19T10:28:52.404Z,8.13
2019-03-19T10:29:52.405Z,8.13
2019-03-19T10:30:52.382Z,8.19
2019-03-19T10:31:52.416Z,8.31
2019-03-19T10:32:52.607Z,8.25
2019-03-19T10:33:52.404Z,8.25
2019-03-19T10:34:52.460Z,8.31
2019-03-19T10:35:52.427Z,8.38
2019-03-19T10:36:52.415Z,8.5
2019-03-19T10:37:52.478Z,8.5
2019-03-19T10:38:52.475Z,8.5
2019-03-19T10:39:52.397Z,8.44
2019-03-19T10:40:52.391Z,8.44
2019-03-19T10:41:52.403Z,8.5
2019-03-19T10:42:52.379Z,8.38
2019-03-19T10:43:52.379Z,8.31
2019-03-19T10:44:52.370Z,8.31
2019-03-19T10:45:52.424Z,8.19
2019-03-19T10:46:52.401Z,8.19
2019-03-19T10:47:52.390Z,8.19
2019-03-19T10:48:52.371Z,8.19
2019-03-19T10:49:52.380Z,8.19
2019-03-19T10:50:52.434Z,8.25
2019-03-19T10:51:52.383Z,8.31
2019-03-19T10:52:52.398Z,8.44
2019-03-19T10:53:52.426Z,8.5
2019-03-19T10:54:52.447Z,8.5
2019-03-19T10:55:52.375Z,8.63
2019-03-19T10:56:52.371Z,8.69
2019-03-19T10:57:52.438Z,8.63
2019-03-19T10:58:52.665Z,8.63
2019-03-19T10:59:52.700Z,8.63
2019-03-19T11:00:06.629Z,8.69
2019-03-19T11:01:06.356Z,8.63
2019-03-19T11:02:06.322Z,8.63
2019-03-19T11:03:06.338Z,8.56
2019-03-19T11:04:06.440Z,8.63
2019-03-19T11:05:06.318Z,8.63
2019-03-19T11:06:06.335Z,8.63
2019-03-19T11:07:06.437Z,8.56
2019-03-19T11:08:06.392Z,8.5
2019-03-19T11:09:06.332Z,8.56
2019-03-19T11:10:06.390Z,8.56
2019-03-19T11:11:06.335Z,8.63
2019-03-19T11:12:06.307Z,8.63
2019-03-19T11:13:06.342Z,8.69
2019-03-19T11:14:06.320Z,8.75
2019-03-19T11:15:06.318Z,8.81
2019-03-19T11:16:06.332Z,8.94
2019-03-19T11:17:06.317Z,9
2019-03-19T11:18:06.311Z,9.06
2019-03-19T11:19:06.306Z,9.13
2019-03-19T11:20:06.358Z,9.25
2019-03-19T11:21:06.496Z,9.31
2019-03-19T11:22:06.493Z,9.38
2019-03-19T11:23:06.324Z,9.44
2019-03-19T11:24:06.328Z,9.44
2019-03-19T11:25:06.288Z,9.5
2019-03-19T11:26:06.294Z,9.44
2019-03-19T11:27:06.287Z,9.44
2019-03-19T11:28:06.310Z,9.38
2019-03-19T11:29:06.316Z,9.44
2019-03-19T11:30:06.992Z,9.5
2019-03-19T11:31:06.319Z,9.63
2019-03-19T11:32:06.276Z,9.75
2019-03-19T11:33:06.302Z,9.81
2019-03-19T11:34:06.332Z,9.75
2019-03-19T11:35:06.300Z,9.69
2019-03-19T11:36:06.301Z,9.69
2019-03-19T11:37:06.296Z,9.63
2019-03-19T11:38:06.317Z,9.5
2019-03-19T11:39:06.270Z,9.38
2019-03-19T11:40:06.363Z,9.38
2019-03-19T11:41:07.661Z,9.38
2019-03-19T11:42:06.677Z,9.38
2019-03-19T11:43:06.411Z,9.31
2019-03-19T11:44:06.275Z,9.31
2019-03-19T11:45:06.319Z,9.25
2019-03-19T11:46:06.279Z,9.13
2019-03-19T11:47:06.251Z,9.06
2019-03-19T11:48:06.313Z,9
2019-03-19T11:49:06.270Z,9
2019-03-19T11:50:06.275Z,9.13
2019-03-19T11:51:06.328Z,9.25
2019-03-19T11:52:06.255Z,9.25
2019-03-19T11:53:06.314Z,9.31
2019-03-19T11:54:06.292Z,9.31
2019-03-19T11:55:06.276Z,9.31
2019-03-19T11:56:06.273Z,9.31
2019-03-19T11:57:06.246Z,9.38
2019-03-19T11:58:06.256Z,9.44
2019-03-19T11:59:06.245Z,9.5
2019-03-19T12:00:11.979Z,9.5
2019-03-19T12:01:06.250Z,9.5
2019-03-19T12:02:06.322Z,9.44
2019-03-19T12:03:16.880Z,9.5
2019-03-19T12:04:06.413Z,9.5
2019-03-19T12:05:06.268Z,9.38
2019-03-19T12:06:06.287Z,9.38
2019-03-19T12:07:06.422Z,9.31
2019-03-19T12:08:06.293Z,9.38
2019-03-19T12:09:06.245Z,9.5
2019-03-19T12:10:06.334Z,9.69
2019-03-19T12:11:06.262Z,9.81
2019-03-19T12:12:06.251Z,9.88
2019-03-19T12:13:06.246Z,9.88
2019-03-19T12:14:06.255Z,9.69
2019-03-19T12:15:06.326Z,9.56
2019-03-19T12:16:06.304Z,9.56
2019-03-19T12:17:06.245Z,9.5
2019-03-19T12:18:06.283Z,9.38
2019-03-19T12:19:06.215Z,9.38
2019-03-19T12:20:06.348Z,9.38
2019-03-19T12:21:06.222Z,9.5
2019-03-19T12:22:06.224Z,9.56
2019-03-19T12:23:06.247Z,9.63
2019-03-19T12:24:06.245Z,9.69
2019-03-19T12:25:07.476Z,9.5
2019-03-19T12:26:06.329Z,9.56
2019-03-19T12:27:06.296Z,9.5
2019-03-19T12:28:06.217Z,9.5
2019-03-19T12:29:06.298Z,9.38
2019-03-19T12:30:06.308Z,9.44
2019-03-19T12:31:06.211Z,9.31
2019-03-19T12:32:06.200Z,9.31
2019-03-19T12:33:06.215Z,9.19
2019-03-19T12:34:06.212Z,9.19
2019-03-19T12:35:06.230Z,9.19
2019-03-19T12:36:06.204Z,9.19
2019-03-19T12:37:06.200Z,9.25
2019-03-19T12:38:06.183Z,9.38
2019-03-19T12:39:06.218Z,9.5
2019-03-19T12:40:06.242Z,9.63
2019-03-19T12:41:06.189Z,9.75
2019-03-19T12:42:06.233Z,9.88
2019-03-19T12:43:06.238Z,10
2019-03-19T12:44:06.226Z,10
2019-03-19T12:45:06.228Z,10.06
2019-03-19T12:46:06.218Z,10.13
2019-03-19T12:47:06.416Z,10.19
2019-03-19T12:48:06.191Z,10.19
2019-03-19T12:49:06.211Z,10.31
2019-03-19T12:50:06.271Z,10.31
2019-03-19T12:51:06.252Z,10.31
2019-03-19T12:52:06.257Z,10.38
2019-03-19T12:53:06.190Z,10.38
2019-03-19T12:54:06.171Z,10.38
2019-03-19T12:55:06.180Z,10.38
2019-03-19T12:56:06.231Z,10.38
2019-03-19T12:57:06.198Z,10.25
2019-03-19T12:58:06.204Z,10.25
2019-03-19T12:59:06.169Z,10.19
2019-03-19T13:00:06.253Z,10.19
2019-03-19T13:01:06.621Z,10.19
2019-03-19T13:02:06.186Z,10.13
2019-03-19T13:03:06.177Z,10.19
2019-03-19T13:04:06.173Z,10.19
2019-03-19T13:05:06.224Z,10.19
2019-03-19T13:06:06.193Z,10.06
2019-03-19T13:07:06.190Z,10.06
2019-03-19T13:08:06.261Z,10
2019-03-19T13:09:06.334Z,9.94
2019-03-19T13:10:06.162Z,9.88
2019-03-19T13:11:06.173Z,9.94
2019-03-19T13:12:06.157Z,10.06
2019-03-19T13:13:06.173Z,10
2019-03-19T13:14:06.174Z,10.06
2019-03-19T13:15:06.146Z,10
2019-03-19T13:16:06.164Z,9.94
2019-03-19T13:17:06.236Z,9.94
2019-03-19T13:18:06.169Z,9.94
2019-03-19T13:19:06.498Z,9.94
2019-03-19T13:20:06.225Z,9.94
2019-03-19T13:21:06.185Z,9.88
2019-03-19T13:22:06.216Z,9.94
2019-03-19T13:23:06.149Z,10
2019-03-19T13:24:06.204Z,10.19